createdAt,value
2022-08-22T00:01:42.349Z,37.17
2022-08-22T00:02:48.935Z,8.35
2022-08-22T00:03:00.023Z,10.32
2022-08-22T00:03:00.353Z,11.00
2022-08-22T00:03:02.257Z,8.93
2022-08-22T00:03:10.730Z,37.22
2022-08-22T00:04:09.636Z,36.55
2022-08-22T00:07:04.456Z,38.85
2022-08-22T00:09:53.470Z,36.58
2022-08-22T00:12:52.695Z,45.22
2022-08-22T00:15:42.277Z,42.03
2022-08-22T00:18:13.900Z,45.42
2022-08-22T00:21:03.496Z,45.60
2022-08-22T00:23:38.650Z,40.30
2022-08-22T00:26:44.729Z,46.65
2022-08-22T00:29:22.070Z,47.17
2022-08-22T00:31:56.703Z,48.28
2022-08-22T00:34:32.735Z,48.67
2022-08-22T00:37:02.573Z,47.17
2022-08-22T00:40:03.191Z,52.10
2022-08-22T00:42:40.458Z,51.92
2022-08-22T00:45:53.640Z,49.47
2022-08-22T00:49:00.001Z,53.03
2022-08-22T00:52:13.093Z,52.60
2022-08-22T00:54:55.785Z,53.17
2022-08-22T00:57:31.908Z,54.63
2022-08-22T01:00:14.781Z,53.15
2022-08-22T01:02:58.617Z,55.88
2022-08-22T01:05:54.013Z,54.13
2022-08-22T01:08:33.902Z,53.75
2022-08-22T01:11:09.961Z,51.92
2022-08-22T01:13:58.635Z,54.17
2022-08-22T01:16:34.836Z,53.70
2022-08-22T01:19:52.822Z,54.92
2022-08-22T01:22:44.234Z,53.25
2022-08-22T01:25:26.145Z,53.47
2022-08-22T01:28:23.336Z,55.90
2022-08-22T01:31:20.460Z,52.33
2022-08-22T01:34:15.555Z,53.67
2022-08-22T01:36:51.642Z,54.20
2022-08-22T01:39:46.496Z,50.65
2022-08-22T01:42:15.211Z,55.13
2022-08-22T01:45:01.207Z,56.28
2022-08-22T01:47:43.791Z,57.63
2022-08-22T01:50:17.706Z,55.85
2022-08-22T01:52:48.844Z,51.25
2022-08-22T01:55:24.636Z,55.42
2022-08-22T01:57:53.393Z,53.00
2022-08-22T02:00:35.555Z,53.40
2022-08-22T02:03:31.792Z,55.67
2022-08-22T02:06:07.428Z,54.38
2022-08-22T02:08:59.093Z,52.63
2022-08-22T02:11:39.262Z,54.15
2022-08-22T02:14:21.470Z,53.65
2022-08-22T02:16:53.877Z,51.70
2022-08-22T02:19:34.494Z,53.70
2022-08-22T02:22:20.253Z,53.42
2022-08-22T02:25:13.511Z,51.45
2022-08-22T02:28:10.078Z,53.00
2022-08-22T02:30:52.414Z,52.00
2022-08-22T02:33:45.838Z,52.60
2022-08-22T02:36:32.512Z,51.53
2022-08-22T02:39:19.700Z,54.78
2022-08-22T02:41:55.778Z,51.10
2022-08-22T02:44:29.883Z,50.97
2022-08-22T02:47:10.666Z,50.97
2022-08-22T02:49:43.662Z,51.22
2022-08-22T02:52:25.326Z,48.75
2022-08-22T02:55:04.104Z,49.45
2022-08-22T02:57:39.346Z,48.10
2022-08-22T03:00:31.844Z,43.50
2022-08-22T03:03:14.536Z,47.63
2022-08-22T03:05:47.371Z,45.75
2022-08-22T03:08:21.259Z,48.30
2022-08-22T03:10:56.624Z,48.20
2022-08-22T03:13:36.114Z,44.13
2022-08-22T03:16:29.572Z,48.33
2022-08-22T03:19:04.808Z,47.75
2022-08-22T03:21:56.009Z,49.30
2022-08-22T03:24:35.368Z,41.72
2022-08-22T03:27:31.353Z,47.95
2022-08-22T03:30:07.812Z,47.55
2022-08-22T03:32:54.545Z,49.63
2022-08-22T03:35:46.533Z,48.55
2022-08-22T03:38:35.084Z,48.08
2022-08-22T03:41:21.032Z,46.80
2022-08-22T03:44:03.284Z,47.08
2022-08-22T03:46:39.552Z,48.00
2022-08-22T03:49:45.314Z,51.42
2022-08-22T03:53:03.040Z,50.33
2022-08-22T03:55:54.880Z,46.75
2022-08-22T03:58:46.876Z,47.90
2022-08-22T04:01:46.267Z,53.47
2022-08-22T04:04:31.728Z,51.55
2022-08-22T04:07:42.705Z,54.45
2022-08-22T04:10:31.849Z,51.05
2022-08-22T04:13:13.886Z,55.25
2022-08-22T04:15:47.005Z,54.05
2022-08-22T04:18:28.931Z,59.65
2022-08-22T04:21:21.610Z,58.08
2022-08-22T04:24:07.202Z,61.33
2022-08-22T04:26:41.945Z,59.72
2022-08-22T04:29:26.802Z,56.95
2022-08-22T04:32:28.968Z,63.05
2022-08-22T04:35:00.003Z,66.00
2022-08-22T04:37:51.064Z,57.95
2022-08-22T04:40:47.397Z,62.72
2022-08-22T04:43:34.208Z,68.35
2022-08-22T04:46:23.039Z,65.68
2022-08-22T04:48:50.102Z,71.95
2022-08-22T04:51:26.670Z,73.93
2022-08-22T04:54:09.075Z,65.75
2022-08-22T04:56:54.689Z,67.88
2022-08-22T04:59:24.624Z,68.97
2022-08-22T05:01:57.839Z,73.78
2022-08-22T05:04:32.420Z,71.32
2022-08-22T05:07:17.181Z,67.50
2022-08-22T05:09:51.827Z,73.03
2022-08-22T05:12:30.579Z,69.45
2022-08-22T05:15:05.735Z,68.22
2022-08-22T05:17:38.807Z,71.05
2022-08-22T05:20:10.136Z,76.82
2022-08-22T05:22:42.288Z,69.35
2022-08-22T05:25:15.191Z,76.03
2022-08-22T05:27:48.389Z,76.70
2022-08-22T05:30:25.051Z,75.25
2022-08-22T05:33:15.294Z,75.35
2022-08-22T05:35:54.624Z,68.28
2022-08-22T05:38:30.114Z,78.03
2022-08-22T05:41:05.759Z,81.40
2022-08-22T05:43:38.467Z,83.57
2022-08-22T05:46:09.952Z,78.55
2022-08-22T05:48:46.412Z,83.93
2022-08-22T05:51:22.255Z,80.20
2022-08-22T05:53:58.053Z,78.93
2022-08-22T05:56:47.931Z,80.65
2022-08-22T05:59:27.911Z,82.65
2022-08-22T06:02:21.811Z,72.65
2022-08-22T06:05:00.984Z,80.82
2022-08-22T06:07:33.931Z,74.70
2022-08-22T06:10:14.564Z,77.63
2022-08-22T06:12:44.629Z,73.68
2022-08-22T06:15:21.047Z,78.30
2022-08-22T06:17:52.628Z,71.88
2022-08-22T06:20:24.288Z,72.22
2022-08-22T06:22:59.073Z,69.20
2022-08-22T06:25:32.399Z,75.07
2022-08-22T06:28:13.014Z,71.28
2022-08-22T06:30:40.779Z,71.65
2022-08-22T06:33:12.853Z,71.05
2022-08-22T06:36:13.903Z,81.20
2022-08-22T06:39:23.137Z,70.00
2022-08-22T06:41:59.323Z,76.82
2022-08-22T06:44:39.574Z,80.20
2022-08-22T06:47:10.384Z,73.18
2022-08-22T06:49:40.636Z,77.65
2022-08-22T06:54:44.758Z,86.82
2022-08-22T06:57:35.576Z,90.82
2022-08-22T07:00:10.530Z,90.75
2022-08-22T07:02:45.357Z,94.35
2022-08-22T07:05:34.447Z,94.55
2022-08-22T07:08:10.911Z,100.05
2022-08-22T07:10:43.656Z,98.90
2022-08-22T07:13:16.487Z,105.25
2022-08-22T07:15:44.057Z,93.78
2022-08-22T07:18:20.820Z,102.00
2022-08-22T07:20:54.968Z,96.10
2022-08-22T07:23:25.154Z,102.47
2022-08-22T07:26:02.544Z,103.47
2022-08-22T07:28:51.226Z,104.50
2022-08-22T07:31:44.523Z,102.47
2022-08-22T07:34:56.893Z,101.45
2022-08-22T07:37:23.952Z,100.90
2022-08-22T07:40:16.758Z,99.65
2022-08-22T07:42:48.140Z,97.55
2022-08-22T07:45:20.824Z,101.72
2022-08-22T07:48:26.158Z,102.88
2022-08-22T07:51:09.203Z,94.18
2022-08-22T07:53:42.010Z,99.85
2022-08-22T07:56:16.660Z,99.80
2022-08-22T07:58:48.530Z,95.78
2022-08-22T08:01:22.358Z,95.70
2022-08-22T08:04:02.252Z,97.80
2022-08-22T08:06:32.517Z,101.30
2022-08-22T08:11:32.392Z,89.88
2022-08-22T08:14:04.885Z,104.75
2022-08-22T08:16:40.981Z,95.85
2022-08-22T08:19:10.911Z,98.25
2022-08-22T08:21:43.557Z,100.45
2022-08-22T08:24:15.942Z,105.10
2022-08-22T08:27:08.377Z,112.75
2022-08-22T08:29:37.123Z,115.65
2022-08-22T08:32:05.967Z,107.82
2022-08-22T08:34:45.665Z,107.35
2022-08-22T08:37:25.712Z,74.90
2022-08-22T08:39:58.239Z,95.63
2022-08-22T08:43:02.738Z,104.75
2022-08-22T08:45:42.150Z,93.35
2022-08-22T08:48:18.720Z,92.47
2022-08-22T08:50:57.624Z,88.70
2022-08-22T08:53:53.121Z,87.13
2022-08-22T08:56:35.679Z,79.07
2022-08-22T08:59:44.178Z,83.93
2022-08-22T09:02:23.637Z,80.80
2022-08-22T09:05:12.767Z,62.90
2022-08-22T09:07:39.997Z,65.63
2022-08-22T09:10:22.473Z,59.25
2022-08-22T09:13:29.169Z,63.35
2022-08-22T09:16:23.254Z,64.55
2022-08-22T09:19:11.621Z,69.72
2022-08-22T09:22:25.129Z,70.07
2022-08-22T09:25:06.249Z,66.55
2022-08-22T09:27:45.945Z,54.83
2022-08-22T09:30:28.886Z,60.70
2022-08-22T09:33:06.429Z,60.63
2022-08-22T09:35:51.873Z,60.08
2022-08-22T09:38:39.996Z,52.70
2022-08-22T09:41:35.622Z,49.47
2022-08-22T09:44:24.928Z,50.13
2022-08-22T09:47:35.460Z,47.25
2022-08-22T09:50:20.690Z,43.13
2022-08-22T09:53:11.080Z,51.33
2022-08-22T09:56:11.557Z,49.22
2022-08-22T09:58:51.616Z,46.20
2022-08-22T10:01:18.836Z,48.60
2022-08-22T10:03:46.104Z,49.83
2022-08-22T10:06:21.245Z,46.63
2022-08-22T10:09:18.721Z,53.13
2022-08-22T10:11:54.095Z,39.45
2022-08-22T10:14:50.582Z,45.10
2022-08-22T10:17:26.144Z,45.92
2022-08-22T10:20:14.444Z,50.85
2022-08-22T10:22:56.320Z,52.15
2022-08-22T10:25:42.152Z,51.03
2022-08-22T10:28:21.491Z,44.33
2022-08-22T10:30:52.066Z,44.13
2022-08-22T10:33:32.745Z,37.70
2022-08-22T10:36:12.096Z,31.67
2022-08-22T10:38:52.450Z,31.25
2022-08-22T10:41:28.585Z,29.95
2022-08-22T10:44:43.030Z,29.98
2022-08-22T10:47:19.086Z,30.30
2022-08-22T10:49:53.987Z,28.70
2022-08-22T10:52:45.645Z,22.45
2022-08-22T10:55:17.569Z,27.70
2022-08-22T10:57:53.890Z,27.27
2022-08-22T11:00:37.950Z,23.35
2022-08-22T11:03:35.681Z,19.88
2022-08-22T11:06:21.497Z,18.88
2022-08-22T11:09:20.487Z,21.05
2022-08-22T11:12:02.757Z,24.30
2022-08-22T11:14:53.730Z,27.70
2022-08-22T11:17:54.256Z,20.95
2022-08-22T11:20:36.044Z,21.52
2022-08-22T11:23:19.541Z,20.67
2022-08-22T11:26:07.614Z,21.67
2022-08-22T11:28:52.773Z,23.73
2022-08-22T11:31:51.662Z,33.42
2022-08-22T11:34:38.800Z,28.38
2022-08-22T11:37:23.846Z,16.20
2022-08-22T11:40:40.141Z,14.57
2022-08-22T11:43:46.560Z,13.50
2022-08-22T11:46:38.614Z,16.85
2022-08-22T11:49:33.880Z,18.05
2022-08-22T11:52:03.945Z,16.70
2022-08-22T11:57:37.296Z,13.40
2022-08-22T12:00:11.328Z,15.80
2022-08-22T12:03:27.609Z,17.25
2022-08-22T12:06:08.601Z,17.52
2022-08-22T12:08:35.848Z,14.43
2022-08-22T12:11:17.846Z,14.75
2022-08-22T12:13:50.484Z,16.25
2022-08-22T12:16:24.184Z,14.50
2022-08-22T12:19:16.610Z,15.00
2022-08-22T12:22:02.182Z,13.73
2022-08-22T12:24:36.314Z,13.70
2022-08-22T12:27:30.758Z,13.48
2022-08-22T12:30:22.581Z,13.07
2022-08-22T12:33:13.045Z,13.05
2022-08-22T12:35:58.460Z,11.20
2022-08-22T12:38:54.388Z,7.90
2022-08-22T12:41:40.284Z,8.27
2022-08-22T12:44:26.256Z,4.75
2022-08-22T12:47:02.175Z,5.10
2022-08-22T12:49:52.551Z,4.07
2022-08-22T12:52:41.107Z,4.13
2022-08-22T12:55:30.203Z,4.70
2022-08-22T12:58:20.154Z,4.63
2022-08-22T13:03:53.999Z,4.32
2022-08-22T13:06:37.913Z,4.57
2022-08-22T13:09:31.491Z,3.65
2022-08-22T13:12:05.665Z,4.13
2022-08-22T13:14:34.892Z,3.53
2022-08-22T13:17:15.251Z,3.33
2022-08-22T13:20:03.880Z,3.35
2022-08-22T13:22:35.471Z,3.70
2022-08-22T13:25:16.429Z,3.22
2022-08-22T13:27:59.387Z,3.15
2022-08-22T13:30:37.971Z,3.83
2022-08-22T13:33:15.331Z,3.63
2022-08-22T13:35:52.590Z,4.05
2022-08-22T13:38:28.496Z,3.15
2022-08-22T13:41:00.913Z,3.60
2022-08-22T13:43:38.111Z,3.38
2022-08-22T13:46:10.943Z,3.17
2022-08-22T13:48:46.707Z,3.30
2022-08-22T13:51:40.217Z,3.70
2022-08-22T13:54:11.168Z,3.53
2022-08-22T13:56:52.876Z,3.63
2022-08-22T13:59:49.781Z,4.20
2022-08-22T14:02:21.976Z,4.15
2022-08-22T14:04:53.195Z,3.75
2022-08-22T14:07:30.020Z,2.88
2022-08-22T14:10:23.876Z,3.55
2022-08-22T14:12:57.506Z,3.40
2022-08-22T14:15:32.120Z,3.45
2022-08-22T14:18:15.408Z,3.90
2022-08-22T14:20:48.367Z,4.28
2022-08-22T14:23:32.085Z,3.38
2022-08-22T14:26:01.926Z,3.92
2022-08-22T14:28:35.587Z,3.75
2022-08-22T14:31:14.470Z,3.50
2022-08-22T14:33:50.999Z,3.35
2022-08-22T14:36:35.557Z,3.30
2022-08-22T14:39:11.325Z,3.78
2022-08-22T14:41:55.999Z,3.85
2022-08-22T14:44:36.850Z,4.30
2022-08-22T14:47:34.468Z,3.22
2022-08-22T14:50:02.638Z,3.65
2022-08-22T14:52:36.440Z,3.50
2022-08-22T14:55:23.260Z,3.50
2022-08-22T14:57:55.845Z,3.65
2022-08-22T15:00:40.159Z,3.70
2022-08-22T15:03:11.566Z,3.30
2022-08-22T15:05:46.277Z,3.08
2022-08-22T15:08:24.292Z,3.17
2022-08-22T15:11:12.437Z,3.35
2022-08-22T15:13:50.192Z,3.22
2022-08-22T15:16:23.468Z,2.85
2022-08-22T15:18:51.762Z,3.40
2022-08-22T15:21:26.668Z,3.17
2022-08-22T15:23:59.941Z,3.00
2022-08-22T15:26:50.184Z,2.97
2022-08-22T15:29:22.815Z,2.92
2022-08-22T15:31:54.161Z,3.88
2022-08-22T15:34:35.803Z,3.05
2022-08-22T15:37:16.613Z,2.90
2022-08-22T15:40:11.895Z,3.03
2022-08-22T15:42:45.129Z,3.15
2022-08-22T15:45:34.719Z,3.50
2022-08-22T15:48:09.806Z,2.95
2022-08-22T15:50:54.669Z,2.88
2022-08-22T15:53:30.381Z,3.47
2022-08-22T15:56:06.890Z,3.25
2022-08-22T15:58:40.349Z,3.17
2022-08-22T16:01:26.247Z,4.07
2022-08-22T16:03:56.118Z,5.20
2022-08-22T16:06:55.301Z,3.05
2022-08-22T16:09:46.901Z,4.05
2022-08-22T16:12:38.434Z,4.45
2022-08-22T16:15:27.364Z,3.80
2022-08-22T16:17:57.450Z,5.00
2022-08-22T16:20:24.540Z,4.35
2022-08-22T16:22:57.948Z,3.80
2022-08-22T16:26:03.204Z,4.00
2022-08-22T16:28:57.294Z,3.58
2022-08-22T16:31:27.698Z,3.72
2022-08-22T16:34:20.451Z,3.83
2022-08-22T16:36:47.715Z,4.07
2022-08-22T16:39:21.376Z,3.88
2022-08-22T16:42:16.166Z,4.40
2022-08-22T16:44:49.278Z,4.20
2022-08-22T16:47:30.704Z,4.00
2022-08-22T16:50:04.528Z,4.97
2022-08-22T16:52:33.375Z,3.83
2022-08-22T16:55:35.830Z,4.70
2022-08-22T16:58:49.852Z,4.43
2022-08-22T17:01:36.439Z,4.85
2022-08-22T17:04:45.255Z,4.90
2022-08-22T17:07:38.378Z,4.93
2022-08-22T17:10:24.864Z,4.82
2022-08-22T17:13:26.284Z,4.22
2022-08-22T17:16:13.542Z,4.53
2022-08-22T17:18:46.245Z,4.88
2022-08-22T17:21:32.625Z,4.63
2022-08-22T17:24:32.261Z,5.05
2022-08-22T17:27:19.732Z,4.57
2022-08-22T17:30:01.928Z,4.93
2022-08-22T17:32:37.367Z,4.75
2022-08-22T17:35:36.049Z,4.75
2022-08-22T17:38:29.040Z,5.57
2022-08-22T17:41:28.559Z,5.07
2022-08-22T17:44:22.817Z,5.35
2022-08-22T17:46:50.036Z,4.72
2022-08-22T17:49:45.937Z,5.13
2022-08-22T17:52:31.450Z,5.57
2022-08-22T17:55:07.668Z,5.45
2022-08-22T17:57:51.967Z,5.50
2022-08-22T18:00:26.186Z,5.05
2022-08-22T18:03:00.960Z,5.68
2022-08-22T18:05:32.856Z,6.18
2022-08-22T18:08:37.561Z,6.20
2022-08-22T18:11:12.889Z,6.15
2022-08-22T18:14:07.405Z,5.57
2022-08-22T18:16:50.172Z,5.50
2022-08-22T18:19:40.558Z,5.60
2022-08-22T18:22:28.375Z,7.80
2022-08-22T18:25:05.788Z,5.90
2022-08-22T18:28:02.189Z,5.78
2022-08-22T18:30:33.383Z,5.35
2022-08-22T18:33:41.096Z,6.15
2022-08-22T18:36:38.171Z,5.05
2022-08-22T18:39:28.725Z,5.30
2022-08-22T18:42:18.119Z,6.00
2022-08-22T18:44:45.518Z,5.30
2022-08-22T18:47:25.595Z,5.93
2022-08-22T18:52:27.964Z,6.78
2022-08-22T18:55:25.310Z,6.80
2022-08-22T18:58:17.257Z,6.40
2022-08-22T19:01:03.292Z,6.70
2022-08-22T19:03:47.376Z,6.53
2022-08-22T19:06:43.576Z,7.13
2022-08-22T19:09:52.331Z,6.20
2022-08-22T19:12:19.688Z,7.20
2022-08-22T19:14:58.646Z,6.93
2022-08-22T19:17:28.860Z,7.35
2022-08-22T19:20:41.555Z,7.63
2022-08-22T19:23:33.181Z,7.47
2022-08-22T19:26:25.178Z,8.90
2022-08-22T19:29:07.678Z,9.20
2022-08-22T19:31:41.317Z,9.05
2022-08-22T19:34:32.780Z,9.35
2022-08-22T19:37:32.340Z,8.52
2022-08-22T19:40:11.386Z,9.45
2022-08-22T19:42:41.783Z,9.73
2022-08-22T19:45:09.457Z,10.30
2022-08-22T19:47:42.601Z,10.40
2022-08-22T19:50:28.175Z,11.02
2022-08-22T19:53:49.627Z,11.50
2022-08-22T19:56:29.475Z,11.40
2022-08-22T19:58:59.282Z,11.63
2022-08-22T20:01:48.112Z,11.10
2022-08-22T20:04:42.430Z,12.57
2022-08-22T20:07:38.568Z,12.23
2022-08-22T20:10:44.096Z,11.98
2022-08-22T20:13:24.039Z,12.95
2022-08-22T20:16:10.327Z,12.82
2022-08-22T20:19:07.825Z,13.25
2022-08-22T20:22:02.211Z,13.80
2022-08-22T20:24:49.631Z,13.48
2022-08-22T20:27:31.096Z,13.40
2022-08-22T20:30:18.810Z,14.00
2022-08-22T20:32:53.846Z,12.98
2022-08-22T20:35:26.863Z,14.25
2022-08-22T20:38:06.747Z,13.82
2022-08-22T20:40:54.846Z,14.67
2022-08-22T20:43:55.280Z,16.30
2022-08-22T20:46:46.109Z,14.10
2022-08-22T20:49:28.699Z,15.15
2022-08-22T20:52:10.526Z,16.48
2022-08-22T20:54:40.861Z,16.92
2022-08-22T20:57:18.275Z,17.33
2022-08-22T21:00:05.815Z,16.50
2022-08-22T21:02:39.458Z,17.55
2022-08-22T21:05:18.650Z,19.05
2022-08-22T21:07:48.703Z,17.35
2022-08-22T21:10:39.961Z,18.23
2022-08-22T21:13:13.326Z,21.77
2022-08-22T21:15:48.997Z,22.65
2022-08-22T21:18:31.618Z,22.70
2022-08-22T21:21:20.622Z,21.27
2022-08-22T21:24:07.923Z,22.30
2022-08-22T21:26:55.834Z,23.95
2022-08-22T21:29:33.852Z,23.42
2022-08-22T21:32:18.755Z,24.60
2022-08-22T21:34:49.062Z,24.60
2022-08-22T21:37:29.782Z,25.05
2022-08-22T21:40:19.287Z,27.67
2022-08-22T21:43:03.502Z,26.17
2022-08-22T21:45:38.330Z,26.13
2022-08-22T21:48:30.304Z,21.77
2022-08-22T21:51:40.812Z,25.13
2022-08-22T21:54:26.130Z,23.52
2022-08-22T21:56:55.807Z,24.63
2022-08-22T21:59:51.980Z,25.35
2022-08-22T22:02:36.367Z,25.27
2022-08-22T22:05:11.442Z,24.63
2022-08-22T22:07:42.098Z,23.83
2022-08-22T22:10:12.820Z,24.60
2022-08-22T22:12:42.949Z,24.20
2022-08-22T22:15:15.250Z,24.85
2022-08-22T22:17:43.414Z,24.15
2022-08-22T22:20:12.556Z,23.27
2022-08-22T22:22:45.764Z,24.38
2022-08-22T22:25:40.415Z,25.10
2022-08-22T22:28:16.504Z,25.67
2022-08-22T22:30:45.484Z,25.25
2022-08-22T22:33:12.919Z,25.38
2022-08-22T22:35:40.768Z,25.85
2022-08-22T22:38:08.720Z,24.52
2022-08-22T22:40:36.380Z,24.73
2022-08-22T22:43:04.103Z,24.52
2022-08-22T22:45:31.308Z,26.55
2022-08-22T22:47:58.728Z,26.00
2022-08-22T22:50:26.523Z,25.75
2022-08-22T22:52:54.205Z,25.75
2022-08-22T22:55:24.574Z,26.23
2022-08-22T22:57:59.262Z,25.23
2022-08-22T23:00:31.744Z,24.42
2022-08-22T23:03:01.624Z,24.77
2022-08-22T23:05:32.797Z,24.67
2022-08-22T23:08:00.620Z,25.15
2022-08-22T23:10:29.696Z,23.40
2022-08-22T23:12:57.190Z,25.00
2022-08-22T23:15:24.570Z,25.02
2022-08-22T23:17:51.746Z,24.85
2022-08-22T23:20:19.311Z,25.02
2022-08-22T23:22:46.540Z,24.67
2022-08-22T23:25:14.608Z,24.50
2022-08-22T23:27:41.872Z,26.00
2022-08-22T23:30:10.615Z,25.23
2022-08-22T23:32:38.202Z,26.80
2022-08-22T23:35:05.916Z,25.05
2022-08-22T23:37:33.091Z,25.40
2022-08-22T23:40:00.340Z,24.65
2022-08-22T23:42:29.190Z,24.83
2022-08-22T23:44:56.389Z,24.20
2022-08-22T23:47:23.527Z,24.83
2022-08-22T23:49:50.797Z,24.52
2022-08-22T23:52:17.916Z,23.92
2022-08-22T23:54:45.048Z,24.20
2022-08-22T23:57:12.784Z,22.67
2022-08-22T23:59:48.459Z,24.13
